This is the latest recevied weather packets stored in our database for station/object W1MWS-13. If no packets are shown the sender has not sent any weather packets the latest 10 day(s).
| Time | Temp. | Humidity | Pressure | Rain* | Wind** | Luminosity | Snow |
|---|---|---|---|---|---|---|---|
| 1777754625 | 11.67° C | 87% | 1010.2 hPa | 0 mm | - | - | - |
| 1777754296 | 11.67° C | 87% | 1010.2 hPa | 0 mm | - | - | - |
| 1777752219 | 13.33° C | 77% | 1010 hPa | 0 mm | - | - | - |
| 1777751598 | 13.33° C | 76% | 1009.9 hPa | 0 mm | - | - | - |
| 1777750708 | 13.89° C | 72% | 1010.2 hPa | 0 mm | - | - | - |
| 1777750399 | 13.89° C | 71% | 1010.2 hPa | 0 mm | - | - | - |
| 1777747402 | 17.22° C | 60% | 1010.2 hPa | 0 mm | - | - | - |
| 1777746816 | 16.67° C | 60% | 1010.2 hPa | 0 mm | - | - | - |
| 1777745029 | 15° C | 71% | 1010.7 hPa | 0 mm | - | - | - |
| 1777742607 | 14.44° C | 76% | 1010.8 hPa | 0 mm | - | - | - |
| 1777740208 | 13.33° C | 81% | 1011.2 hPa | 0 mm | - | - | - |
| 1777738696 | 12.78° C | 84% | 1011.7 hPa | 0 mm | - | - | - |
| 1777737511 | 12.78° C | 84% | 1012 hPa | 0 mm | - | - | - |
| 1777736901 | 12.22° C | 86% | 1011.7 hPa | 0 mm | - | - | - |
| 1777729411 | 8.89° C | 99% | 1012.9 hPa | 0.25 mm | - | - | - |
| 1777729102 | 8.33° C | 99% | 1012.9 hPa | 0.25 mm | - | - | - |
| 1777724606 | 7.22° C | 99% | 1013 hPa | 1.02 mm | - | - | - |
| 1777723407 | 7.78° C | 99% | 1012.9 hPa | 1.52 mm | - | - | - |
| 1777721899 | 7.22° C | 99% | 1013.4 hPa | 1.02 mm | - | - | - |
| 1777720097 | 7.78° C | 99% | 1011.7 hPa | 0 mm | - | - | - |
| 1777719550 | 7.78° C | 99% | 1011.7 hPa | 0 mm | - | - | - |
| 1777718001 | 7.22° C | 99% | 1011.9 hPa | 0 mm | - | - | - |
| 1777705708 | 7.78° C | 89% | 1012.2 hPa | 0 mm | - | - | - |
| 1777705399 | 7.78° C | 89% | 1012.2 hPa | 0 mm | - | - | - |
| 1777705102 | 7.78° C | 89% | 1012.2 hPa | 0 mm | - | - | - |
* Rain latest hour (hover to see other rain measurements)
** Current wind speed in m/s (hover to see current wind gust speed)